createdAt,value
2019-04-23T00:00:13.967Z,10.78
2019-04-23T00:02:56.708Z,14.38
2019-04-23T00:05:39.405Z,14.75
2019-04-23T00:07:56.172Z,13.00
2019-04-23T00:13:05.693Z,12.37
2019-04-23T00:15:31.581Z,12.75
2019-04-23T00:18:19.446Z,13.50
2019-04-23T00:20:44.264Z,13.10
2019-04-23T00:25:52.609Z,11.75
2019-04-23T00:28:20.477Z,12.88
2019-04-23T00:30:49.649Z,12.53
2019-04-23T00:33:19.962Z,14.45
2019-04-23T00:35:44.116Z,11.93
2019-04-23T00:38:18.257Z,14.55
2019-04-23T00:40:43.943Z,13.90
2019-04-23T00:50:52.940Z,13.20
2019-04-23T00:55:49.144Z,16.77
2019-04-23T00:58:25.024Z,13.22
2019-04-23T01:00:52.827Z,13.62
2019-04-23T01:03:25.310Z,13.05
2019-04-23T01:05:46.654Z,14.68
2019-04-23T01:08:18.613Z,11.85
2019-04-23T01:11:02.101Z,12.80
2019-04-23T01:13:31.888Z,13.60
2019-04-23T01:16:02.712Z,15.45
2019-04-23T01:18:38.190Z,18.60
2019-04-23T01:20:53.711Z,14.60
2019-04-23T01:23:21.415Z,18.67
2019-04-23T01:26:00.314Z,20.40
2019-04-23T01:28:49.669Z,14.60
2019-04-23T01:33:50.306Z,17.80
2019-04-23T01:38:53.455Z,13.18
2019-04-23T01:41:20.499Z,16.52
2019-04-23T01:43:47.827Z,15.38
2019-04-23T01:46:23.421Z,17.55
2019-04-23T01:51:20.438Z,21.52
2019-04-23T01:56:22.953Z,14.35
2019-04-23T01:58:57.380Z,14.90
2019-04-23T02:01:21.472Z,13.68
2019-04-23T02:03:59.800Z,16.62
2019-04-23T02:06:24.942Z,15.23
2019-04-23T02:08:56.790Z,18.40
2019-04-23T02:11:16.414Z,18.80
2019-04-23T02:13:54.765Z,16.95
2019-04-23T02:16:26.139Z,14.70
2019-04-23T02:21:22.608Z,15.63
2019-04-23T02:23:53.738Z,16.62
2019-04-23T02:26:27.984Z,15.72
2019-04-23T02:29:03.674Z,15.45
2019-04-23T02:34:12.144Z,16.65
2019-04-23T02:38:58.242Z,15.35
2019-04-23T02:41:46.566Z,14.53
2019-04-23T02:44:11.577Z,15.30
2019-04-23T02:46:24.489Z,16.40
2019-04-23T02:49:04.993Z,18.10
2019-04-23T02:51:39.628Z,17.48
2019-04-23T02:54:16.019Z,18.57
2019-04-23T02:59:14.531Z,19.62
2019-04-23T03:02:00.405Z,20.23
2019-04-23T03:04:32.773Z,15.18
2019-04-23T03:06:38.993Z,16.73
2019-04-23T03:11:41.643Z,18.32
2019-04-23T03:14:12.123Z,16.48
2019-04-23T03:39:46.030Z,15.03
2019-04-23T03:41:59.656Z,15.68
2019-04-23T03:44:29.207Z,13.78
2019-04-23T03:46:58.702Z,14.90
2019-04-23T03:49:33.305Z,17.85
2019-04-23T03:52:01.206Z,14.75
2019-04-23T03:54:39.906Z,16.85
2019-04-23T03:57:17.030Z,19.05
2019-04-23T04:02:10.561Z,16.52
2019-04-23T04:04:32.818Z,14.65
2019-04-23T04:07:28.449Z,17.90
2019-04-23T04:09:34.039Z,13.93
2019-04-23T04:12:04.337Z,20.85
2019-04-23T04:14:42.192Z,14.75
2019-04-23T04:17:09.638Z,17.32
2019-04-23T04:24:36.885Z,15.13
2019-04-23T04:27:19.402Z,16.20
2019-04-23T04:29:39.443Z,12.43
2019-04-23T04:37:35.571Z,13.68
2019-04-23T04:39:33.999Z,14.40
2019-04-23T04:42:06.073Z,11.80
2019-04-23T04:46:59.770Z,13.20
2019-04-23T04:49:48.702Z,16.80
2019-04-23T04:52:28.949Z,13.08
2019-04-23T04:54:22.722Z,13.10
2019-04-23T04:57:14.982Z,14.75
2019-04-23T04:59:41.810Z,15.50
2019-04-23T05:02:25.952Z,14.40
2019-04-23T05:04:42.322Z,15.15
2019-04-23T05:09:48.575Z,14.87
2019-04-23T05:14:45.661Z,14.00
2019-04-23T05:17:16.808Z,13.88
2019-04-23T05:19:47.314Z,15.70
2019-04-23T05:22:17.046Z,11.95
2019-04-23T05:27:12.343Z,15.32
2019-04-23T05:29:36.251Z,12.05
2019-04-23T05:32:04.221Z,15.40
2019-04-23T05:34:57.667Z,16.87
2019-04-23T05:37:06.142Z,13.93
2019-04-23T05:47:16.049Z,12.10
2019-04-23T05:49:41.460Z,14.73
2019-04-23T05:52:14.285Z,13.55
2019-04-23T05:54:46.502Z,12.23
2019-04-23T05:57:06.964Z,13.10
2019-04-23T05:59:34.379Z,13.08
2019-04-23T06:02:26.516Z,11.20
2019-04-23T06:09:41.214Z,16.37
2019-04-23T06:12:12.429Z,18.10
2019-04-23T06:19:42.539Z,15.85
2019-04-23T06:27:15.097Z,15.78
2019-04-23T06:29:39.543Z,12.58
2019-04-23T06:32:14.384Z,14.58
2019-04-23T06:34:42.792Z,13.48
2019-04-23T06:37:18.448Z,13.93
2019-04-23T06:39:42.654Z,12.65
2019-04-23T06:42:16.532Z,13.70
2019-04-23T06:44:54.880Z,13.03
2019-04-23T06:47:20.083Z,14.33
2019-04-23T06:49:51.381Z,13.95
2019-04-23T06:54:56.531Z,17.95
2019-04-23T06:57:22.241Z,13.20
2019-04-23T06:59:49.694Z,18.07
2019-04-23T07:05:02.197Z,16.60
2019-04-23T07:09:52.385Z,13.32
2019-04-23T07:12:21.969Z,16.30
2019-04-23T07:17:18.479Z,13.60
2019-04-23T07:19:54.860Z,15.72
2019-04-23T07:22:21.663Z,17.73
2019-04-23T07:24:54.520Z,14.75
2019-04-23T07:27:34.672Z,13.03
2019-04-23T07:30:03.587Z,12.45
2019-04-23T07:32:29.098Z,10.25
2019-04-23T07:35:03.909Z,20.60
2019-04-23T07:37:22.828Z,11.95
2019-04-23T07:42:54.851Z,11.65
2019-04-23T07:45:22.239Z,16.90
2019-04-23T07:48:13.261Z,10.63
2019-04-23T07:50:46.014Z,14.75
2019-04-23T08:00:45.607Z,11.33
2019-04-23T08:05:39.582Z,14.75
2019-04-23T08:08:15.644Z,15.55
2019-04-23T08:11:10.703Z,15.15
2019-04-23T08:13:21.580Z,9.55
2019-04-23T08:15:46.502Z,10.28
2019-04-23T08:18:19.870Z,12.55
2019-04-23T08:20:49.135Z,10.60
2019-04-23T08:26:13.611Z,11.48
2019-04-23T08:31:08.101Z,9.53
2019-04-23T08:33:42.243Z,12.23
2019-04-23T08:36:13.542Z,12.58
2019-04-23T08:38:41.343Z,14.83
2019-04-23T08:41:21.527Z,11.60
2019-04-23T08:43:47.895Z,13.30
2019-04-23T08:46:43.340Z,17.50
2019-04-23T08:49:03.335Z,17.02
2019-04-23T08:51:44.095Z,18.92
2019-04-23T08:54:03.036Z,12.07
2019-04-23T08:56:38.504Z,15.35
2019-04-23T08:59:07.402Z,14.93
2019-04-23T09:01:33.007Z,10.32
2019-04-23T09:04:00.387Z,12.58
2019-04-23T09:06:27.795Z,13.68
2019-04-23T09:09:10.438Z,11.75
2019-04-23T09:16:35.820Z,19.20
2019-04-23T09:19:08.924Z,12.82
2019-04-23T09:24:03.456Z,12.03
2019-04-23T09:26:34.400Z,15.00
2019-04-23T09:29:04.415Z,15.65
2019-04-23T09:32:16.613Z,17.32
2019-04-23T09:34:57.135Z,10.90
2019-04-23T09:39:59.544Z,13.95
2019-04-23T09:42:38.090Z,10.15
2019-04-23T09:45:28.077Z,9.80
2019-04-23T09:47:57.228Z,9.75
2019-04-23T09:50:23.505Z,15.68
2019-04-23T09:55:32.493Z,14.55
2019-04-23T09:57:55.495Z,11.30
2019-04-23T10:02:44.814Z,23.73
2019-04-23T10:05:07.379Z,12.18
2019-04-23T10:07:36.255Z,11.18
2019-04-23T10:09:55.593Z,8.00
2019-04-23T10:12:24.352Z,12.90
2019-04-23T10:15:04.790Z,12.80
2019-04-23T10:17:24.375Z,8.53
2019-04-23T10:19:53.163Z,12.70
2019-04-23T10:22:22.949Z,11.95
2019-04-23T10:24:53.266Z,12.15
2019-04-23T10:27:23.264Z,14.53
2019-04-23T10:29:51.949Z,12.37
2019-04-23T10:32:21.722Z,14.98
2019-04-23T10:35:03.574Z,14.63
2019-04-23T10:37:31.863Z,13.78
2019-04-23T10:39:56.700Z,10.58
2019-04-23T10:42:21.913Z,12.18
2019-04-23T10:45:16.605Z,11.88
2019-04-23T10:53:29.687Z,15.00
2019-04-23T10:58:32.108Z,11.57
2019-04-23T11:08:30.751Z,14.15
2019-04-23T11:11:11.900Z,14.95
2019-04-23T11:18:57.109Z,14.85
2019-04-23T11:23:51.771Z,13.78
2019-04-23T11:26:28.531Z,13.35
2019-04-23T11:28:45.106Z,16.55
2019-04-23T11:36:48.193Z,12.90
2019-04-23T11:41:45.693Z,20.30
2019-04-23T11:44:56.103Z,16.57
2019-04-23T11:46:40.749Z,13.78
2019-04-23T12:01:41.937Z,24.85
2019-04-23T12:04:14.140Z,23.40
2019-04-23T12:07:04.739Z,12.28
2019-04-23T12:09:42.988Z,21.25
2019-04-23T12:12:17.316Z,12.45
2019-04-23T12:18:05.511Z,17.60
2019-04-23T12:22:17.854Z,18.90
2019-04-23T12:25:09.321Z,15.83
2019-04-23T12:29:47.550Z,27.70
2019-04-23T12:35:01.582Z,16.77
2019-04-23T12:40:19.265Z,20.68
2019-04-23T12:45:27.005Z,31.35
2019-04-23T12:52:40.636Z,23.92
2019-04-23T12:57:43.689Z,21.80
2019-04-23T13:05:12.745Z,23.22
2019-04-23T13:10:10.381Z,28.02
2019-04-23T13:12:57.621Z,17.17
2019-04-23T13:15:15.852Z,17.10
2019-04-23T13:17:55.526Z,17.37
2019-04-23T13:20:27.545Z,42.65
2019-04-23T13:22:49.474Z,11.38
2019-04-23T13:28:06.867Z,11.90
2019-04-23T13:36:01.084Z,16.62
2019-04-23T13:38:15.756Z,15.40
2019-04-23T13:43:19.541Z,17.10
2019-04-23T13:48:10.889Z,14.23
2019-04-23T13:53:31.779Z,9.93
2019-04-23T14:00:53.870Z,17.92
2019-04-23T14:03:26.026Z,11.70
2019-04-23T14:06:01.726Z,16.00
2019-04-23T14:08:37.845Z,15.68
2019-04-23T14:10:55.686Z,14.30
2019-04-23T14:21:02.661Z,17.42
2019-04-23T14:23:39.364Z,11.03
2019-04-23T14:26:10.496Z,11.33
2019-04-23T14:30:59.284Z,12.40
2019-04-23T14:36:00.515Z,17.02
2019-04-23T14:43:30.589Z,12.82
2019-04-23T14:46:31.113Z,9.45
2019-04-23T14:48:31.328Z,11.45
2019-04-23T14:51:06.904Z,20.52
2019-04-23T14:58:42.668Z,15.25
2019-04-23T15:03:40.359Z,8.68
2019-04-23T15:06:18.144Z,12.30
2019-04-23T15:09:00.380Z,16.62
2019-04-23T15:11:20.985Z,15.93
2019-04-23T15:18:53.034Z,10.55
2019-04-23T15:23:51.929Z,11.35
2019-04-23T15:27:02.694Z,12.63
2019-04-23T15:28:17.912Z,12.95
2019-04-23T15:31:23.444Z,14.50
2019-04-23T15:33:55.290Z,16.52
2019-04-23T15:41:20.648Z,11.00
2019-04-23T15:43:55.248Z,14.85
2019-04-23T15:46:21.531Z,13.08
2019-04-23T15:48:52.864Z,20.80
2019-04-23T15:53:46.517Z,20.02
2019-04-23T15:56:18.694Z,14.83
2019-04-23T15:58:53.706Z,10.38
2019-04-23T16:03:22.174Z,15.53
2019-04-23T16:05:51.205Z,17.75
2019-04-23T16:09:01.669Z,14.23
2019-04-23T16:14:08.242Z,13.88
2019-04-23T16:16:27.129Z,14.13
2019-04-23T16:19:13.764Z,15.23
2019-04-23T16:21:47.319Z,16.52
2019-04-23T16:24:13.418Z,18.82
2019-04-23T16:26:50.371Z,16.25
2019-04-23T16:29:26.048Z,16.73
2019-04-23T16:31:39.987Z,17.00
2019-04-23T16:34:19.183Z,15.98
2019-04-23T16:36:47.401Z,17.75
2019-04-23T16:41:54.807Z,18.02
2019-04-23T16:44:20.306Z,19.48
2019-04-23T16:46:50.205Z,16.90
2019-04-23T16:49:17.804Z,18.67
2019-04-23T16:52:01.456Z,20.40
2019-04-23T16:54:19.585Z,19.17
2019-04-23T16:57:17.918Z,17.90
2019-04-23T16:59:18.478Z,19.80
2019-04-23T17:01:52.547Z,20.77
2019-04-23T17:09:18.586Z,21.35
2019-04-23T17:16:44.331Z,18.95
2019-04-23T17:19:22.424Z,17.15
2019-04-23T17:21:53.359Z,17.25
2019-04-23T17:27:00.874Z,21.95
2019-04-23T17:29:21.511Z,17.42
2019-04-23T17:31:45.334Z,19.17
2019-04-23T17:34:30.453Z,22.45
2019-04-23T17:40:01.851Z,19.73
2019-04-23T17:42:24.396Z,16.50
2019-04-23T17:45:22.856Z,19.42
2019-04-23T17:50:05.745Z,17.67
2019-04-23T17:52:35.012Z,19.55
2019-04-23T17:55:09.286Z,16.07
2019-04-23T17:57:31.982Z,17.85
2019-04-23T18:05:06.141Z,22.70
2019-04-23T18:07:43.686Z,22.98
2019-04-23T18:12:43.603Z,15.85
2019-04-23T18:15:06.553Z,16.95
2019-04-23T18:20:12.431Z,19.90
2019-04-23T18:30:26.302Z,15.80
2019-04-23T18:35:35.680Z,20.90
2019-04-23T18:38:14.778Z,15.05
2019-04-23T18:43:11.980Z,17.62
2019-04-23T18:45:45.294Z,17.80
2019-04-23T18:51:03.557Z,16.87
2019-04-23T18:53:39.500Z,17.37
2019-04-23T18:58:44.714Z,16.95
2019-04-23T19:01:05.330Z,21.12
2019-04-23T19:03:48.403Z,15.88
2019-04-23T19:06:29.634Z,16.87
2019-04-23T19:09:16.382Z,16.05
2019-04-23T19:12:08.735Z,21.55
2019-04-23T19:14:47.524Z,14.70
2019-04-23T19:17:38.665Z,13.98
2019-04-23T19:19:33.452Z,18.50
2019-04-23T19:24:34.567Z,14.35
2019-04-23T19:29:44.013Z,19.73
2019-04-23T19:34:39.012Z,13.80
2019-04-23T19:42:20.028Z,15.65
2019-04-23T19:47:09.571Z,12.82
2019-04-23T19:49:38.919Z,12.07
2019-04-23T19:52:03.195Z,11.63
2019-04-23T20:04:43.998Z,5.45
2019-04-23T20:09:50.404Z,8.38
2019-04-23T20:12:06.361Z,7.00
2019-04-23T20:19:44.163Z,5.90
2019-04-23T20:22:16.351Z,6.50
2019-04-23T20:27:28.770Z,10.08
2019-04-23T20:37:57.790Z,4.60
2019-04-23T20:44:58.973Z,4.47
2019-04-23T20:47:32.220Z,4.75
2019-04-23T20:52:26.271Z,7.72
2019-04-23T20:55:01.139Z,8.48
2019-04-23T21:00:12.361Z,3.92
2019-04-23T21:05:24.120Z,6.10
2019-04-23T21:15:27.997Z,3.62
2019-04-23T21:18:13.657Z,3.80
2019-04-23T21:20:30.106Z,4.17
2019-04-23T21:22:58.977Z,8.13
2019-04-23T21:25:28.369Z,5.15
2019-04-23T21:33:16.137Z,5.83
2019-04-23T21:38:49.026Z,4.95
2019-04-23T21:43:47.575Z,6.20
2019-04-23T21:46:15.870Z,5.60
2019-04-23T21:48:57.813Z,6.90
2019-04-23T21:51:09.492Z,4.25
2019-04-23T21:53:42.645Z,4.05
2019-04-23T21:56:08.624Z,5.65
2019-04-23T21:58:47.356Z,5.22
2019-04-23T22:01:27.873Z,7.40
2019-04-23T22:04:10.202Z,3.70
2019-04-23T22:06:28.575Z,4.33
2019-04-23T22:08:59.400Z,4.92
2019-04-23T22:11:42.626Z,5.20
2019-04-23T22:16:23.405Z,4.75
2019-04-23T22:19:04.250Z,7.28
2019-04-23T22:26:32.241Z,5.97
2019-04-23T22:29:05.658Z,8.73
2019-04-23T22:31:29.185Z,4.80
2019-04-23T22:34:02.286Z,4.97
2019-04-23T22:36:23.042Z,6.17
2019-04-23T22:38:59.701Z,4.50
2019-04-23T22:41:28.223Z,7.62
2019-04-23T22:44:07.191Z,7.72
2019-04-23T22:46:35.343Z,4.97
2019-04-23T22:49:12.773Z,6.58
2019-04-23T22:51:41.518Z,7.25
2019-04-23T22:54:05.517Z,7.33
2019-04-23T22:56:25.928Z,4.05
2019-04-23T22:59:11.663Z,4.65
2019-04-23T23:01:41.211Z,5.97
2019-04-23T23:04:13.459Z,8.23
2019-04-23T23:06:54.071Z,4.10
2019-04-23T23:11:44.490Z,7.33
2019-04-23T23:14:12.133Z,3.12
2019-04-23T23:19:14.781Z,4.08
2019-04-23T23:21:59.427Z,4.17
2019-04-23T23:24:06.187Z,6.50
2019-04-23T23:26:43.350Z,3.42
2019-04-23T23:29:06.254Z,6.80
2019-04-23T23:31:50.152Z,3.85
2019-04-23T23:34:06.838Z,2.83
2019-04-23T23:36:47.639Z,3.47
2019-04-23T23:39:16.230Z,3.37
2019-04-23T23:41:50.143Z,3.55
2019-04-23T23:44:27.909Z,4.80
2019-04-23T23:46:48.748Z,3.60
2019-04-23T23:49:13.601Z,3.40
2019-04-23T23:51:46.581Z,4.55
2019-04-23T23:54:13.865Z,5.05
